sensor_id;sensor_type;location;lat;lon;timestamp;P1;durP1;ratioP1;P2;durP2;ratioP2
39188;SDS011;24915;50.858;4.376;2023-03-31T00:00:09;21.23;;;4.15;;
39188;SDS011;24915;50.858;4.376;2023-03-31T00:02:37;25.88;;;5.13;;
39188;SDS011;24915;50.858;4.376;2023-03-31T00:05:06;24.05;;;4.63;;
39188;SDS011;24915;50.858;4.376;2023-03-31T00:07:32;26.48;;;4.80;;
39188;SDS011;24915;50.858;4.376;2023-03-31T00:10:03;26.98;;;4.50;;
39188;SDS011;24915;50.858;4.376;2023-03-31T00:12:29;24.95;;;3.95;;
39188;SDS011;24915;50.858;4.376;2023-03-31T00:14:55;20.13;;;3.85;;
39188;SDS011;24915;50.858;4.376;2023-03-31T00:17:21;23.00;;;4.55;;
39188;SDS011;24915;50.858;4.376;2023-03-31T00:19:46;25.58;;;4.63;;
39188;SDS011;24915;50.858;4.376;2023-03-31T00:22:16;19.67;;;3.83;;
39188;SDS011;24915;50.858;4.376;2023-03-31T00:24:47;20.70;;;3.67;;
39188;SDS011;24915;50.858;4.376;2023-03-31T00:27:12;28.27;;;4.93;;
39188;SDS011;24915;50.858;4.376;2023-03-31T00:29:38;21.15;;;3.95;;
39188;SDS011;24915;50.858;4.376;2023-03-31T00:32:07;18.00;;;3.83;;
39188;SDS011;24915;50.858;4.376;2023-03-31T00:34:33;18.45;;;3.78;;
39188;SDS011;24915;50.858;4.376;2023-03-31T00:36:59;20.85;;;3.58;;
39188;SDS011;24915;50.858;4.376;2023-03-31T00:39:27;16.33;;;3.30;;
39188;SDS011;24915;50.858;4.376;2023-03-31T00:41:56;20.13;;;4.18;;
39188;SDS011;24915;50.858;4.376;2023-03-31T00:44:23;17.15;;;3.38;;
39188;SDS011;24915;50.858;4.376;2023-03-31T00:49:47;19.63;;;3.70;;
39188;SDS011;24915;50.858;4.376;2023-03-31T00:54:48;26.90;;;4.78;;
39188;SDS011;24915;50.858;4.376;2023-03-31T00:57:20;26.57;;;4.87;;
39188;SDS011;24915;50.858;4.376;2023-03-31T00:59:49;36.83;;;5.55;;
39188;SDS011;24915;50.858;4.376;2023-03-31T01:02:17;24.52;;;4.40;;
39188;SDS011;24915;50.858;4.376;2023-03-31T01:04:50;28.67;;;3.85;;
39188;SDS011;24915;50.858;4.376;2023-03-31T01:09:50;21.17;;;4.68;;
39188;SDS011;24915;50.858;4.376;2023-03-31T01:12:18;23.95;;;5.20;;
39188;SDS011;24915;50.858;4.376;2023-03-31T01:14:45;25.30;;;4.72;;
39188;SDS011;24915;50.858;4.376;2023-03-31T01:17:13;18.13;;;3.10;;
39188;SDS011;24915;50.858;4.376;2023-03-31T01:27:52;18.30;;;3.22;;
39188;SDS011;24915;50.858;4.376;2023-03-31T01:39:48;20.35;;;4.10;;
39188;SDS011;24915;50.858;4.376;2023-03-31T01:42:43;17.17;;;3.25;;
39188;SDS011;24915;50.858;4.376;2023-03-31T01:50:34;11.60;;;2.78;;
39188;SDS011;24915;50.858;4.376;2023-03-31T01:56:06;19.25;;;3.83;;
39188;SDS011;24915;50.858;4.376;2023-03-31T02:01:55;11.52;;;2.40;;
39188;SDS011;24915;50.858;4.376;2023-03-31T02:04:22;17.92;;;3.05;;
39188;SDS011;24915;50.858;4.376;2023-03-31T02:06:59;15.43;;;2.47;;
39188;SDS011;24915;50.858;4.376;2023-03-31T02:09:32;17.77;;;3.05;;
39188;SDS011;24915;50.858;4.376;2023-03-31T02:12:06;12.57;;;2.47;;
39188;SDS011;24915;50.858;4.376;2023-03-31T02:14:35;15.07;;;2.75;;
39188;SDS011;24915;50.858;4.376;2023-03-31T02:17:05;20.65;;;3.15;;
39188;SDS011;24915;50.858;4.376;2023-03-31T02:19:39;12.30;;;2.85;;
39188;SDS011;24915;50.858;4.376;2023-03-31T02:22:08;9.27;;;2.72;;
39188;SDS011;24915;50.858;4.376;2023-03-31T02:24:35;14.30;;;2.47;;
39188;SDS011;24915;50.858;4.376;2023-03-31T02:29:45;12.23;;;2.30;;
39188;SDS011;24915;50.858;4.376;2023-03-31T02:34:49;11.25;;;2.42;;
39188;SDS011;24915;50.858;4.376;2023-03-31T02:37:15;11.90;;;2.58;;
39188;SDS011;24915;50.858;4.376;2023-03-31T02:39:42;15.43;;;2.33;;
39188;SDS011;24915;50.858;4.376;2023-03-31T02:42:11;10.45;;;2.38;;
39188;SDS011;24915;50.858;4.376;2023-03-31T02:44:37;10.90;;;2.35;;
39188;SDS011;24915;50.858;4.376;2023-03-31T02:47:08;10.98;;;2.42;;
39188;SDS011;24915;50.858;4.376;2023-03-31T02:49:37;13.45;;;2.58;;
39188;SDS011;24915;50.858;4.376;2023-03-31T02:55:14;11.77;;;2.28;;
39188;SDS011;24915;50.858;4.376;2023-03-31T02:58:02;10.55;;;2.28;;
39188;SDS011;24915;50.858;4.376;2023-03-31T03:17:11;12.23;;;2.55;;
39188;SDS011;24915;50.858;4.376;2023-03-31T03:19:41;14.80;;;3.08;;
39188;SDS011;24915;50.858;4.376;2023-03-31T03:22:07;12.73;;;2.63;;
39188;SDS011;24915;50.858;4.376;2023-03-31T03:24:33;16.90;;;2.92;;
39188;SDS011;24915;50.858;4.376;2023-03-31T03:26:59;15.48;;;2.42;;
39188;SDS011;24915;50.858;4.376;2023-03-31T03:29:25;18.13;;;3.33;;
39188;SDS011;24915;50.858;4.376;2023-03-31T03:31:52;12.32;;;2.70;;
39188;SDS011;24915;50.858;4.376;2023-03-31T03:34:18;16.90;;;3.00;;
39188;SDS011;24915;50.858;4.376;2023-03-31T03:36:44;16.05;;;2.70;;
39188;SDS011;24915;50.858;4.376;2023-03-31T03:39:10;18.25;;;3.13;;
39188;SDS011;24915;50.858;4.376;2023-03-31T03:41:36;19.80;;;3.17;;
39188;SDS011;24915;50.858;4.376;2023-03-31T03:44:02;14.07;;;2.47;;
39188;SDS011;24915;50.858;4.376;2023-03-31T03:46:28;12.30;;;2.83;;
39188;SDS011;24915;50.858;4.376;2023-03-31T03:48:54;7.78;;;1.20;;
39188;SDS011;24915;50.858;4.376;2023-03-31T03:51:20;3.65;;;0.95;;
39188;SDS011;24915;50.858;4.376;2023-03-31T03:53:46;1.65;;;0.77;;
39188;SDS011;24915;50.858;4.376;2023-03-31T03:56:12;3.60;;;0.95;;
39188;SDS011;24915;50.858;4.376;2023-03-31T03:58:38;3.72;;;0.82;;
39188;SDS011;24915;50.858;4.376;2023-03-31T04:01:04;1.35;;;0.60;;
39188;SDS011;24915;50.858;4.376;2023-03-31T04:03:30;1.40;;;0.40;;
39188;SDS011;24915;50.858;4.376;2023-03-31T04:05:55;0.88;;;0.50;;
39188;SDS011;24915;50.858;4.376;2023-03-31T04:08:22;0.90;;;0.52;;
39188;SDS011;24915;50.858;4.376;2023-03-31T04:10:48;2.92;;;0.70;;
39188;SDS011;24915;50.858;4.376;2023-03-31T04:13:16;1.30;;;0.70;;
39188;SDS011;24915;50.858;4.376;2023-03-31T04:15:45;2.45;;;0.70;;
39188;SDS011;24915;50.858;4.376;2023-03-31T04:18:10;3.75;;;1.00;;
39188;SDS011;24915;50.858;4.376;2023-03-31T04:20:47;4.78;;;1.10;;
39188;SDS011;24915;50.858;4.376;2023-03-31T04:23:28;1.95;;;1.17;;
39188;SDS011;24915;50.858;4.376;2023-03-31T04:25:55;3.75;;;1.23;;
39188;SDS011;24915;50.858;4.376;2023-03-31T04:28:21;6.20;;;1.90;;
39188;SDS011;24915;50.858;4.376;2023-03-31T04:30:47;7.53;;;1.67;;
39188;SDS011;24915;50.858;4.376;2023-03-31T04:33:13;6.53;;;2.20;;
39188;SDS011;24915;50.858;4.376;2023-03-31T04:35:43;6.90;;;1.75;;
39188;SDS011;24915;50.858;4.376;2023-03-31T04:38:16;6.88;;;1.90;;
39188;SDS011;24915;50.858;4.376;2023-03-31T04:40:46;13.70;;;2.67;;
39188;SDS011;24915;50.858;4.376;2023-03-31T04:43:13;11.48;;;2.58;;
39188;SDS011;24915;50.858;4.376;2023-03-31T04:45:40;11.23;;;2.50;;
39188;SDS011;24915;50.858;4.376;2023-03-31T04:48:06;13.13;;;2.58;;
39188;SDS011;24915;50.858;4.376;2023-03-31T04:50:32;15.60;;;3.38;;
39188;SDS011;24915;50.858;4.376;2023-03-31T04:52:58;16.23;;;2.72;;
39188;SDS011;24915;50.858;4.376;2023-03-31T04:55:24;16.58;;;3.42;;
39188;SDS011;24915;50.858;4.376;2023-03-31T04:57:50;16.92;;;3.33;;
39188;SDS011;24915;50.858;4.376;2023-03-31T05:00:16;18.08;;;3.50;;
39188;SDS011;24915;50.858;4.376;2023-03-31T05:02:44;15.63;;;3.13;;
39188;SDS011;24915;50.858;4.376;2023-03-31T05:05:09;11.23;;;3.53;;
39188;SDS011;24915;50.858;4.376;2023-03-31T05:07:35;23.08;;;3.85;;
39188;SDS011;24915;50.858;4.376;2023-03-31T05:10:01;22.50;;;3.67;;
39188;SDS011;24915;50.858;4.376;2023-03-31T05:12:27;19.38;;;3.95;;
39188;SDS011;24915;50.858;4.376;2023-03-31T05:14:52;20.15;;;3.60;;
39188;SDS011;24915;50.858;4.376;2023-03-31T05:17:18;15.55;;;3.40;;
39188;SDS011;24915;50.858;4.376;2023-03-31T05:19:44;20.63;;;4.15;;
39188;SDS011;24915;50.858;4.376;2023-03-31T05:22:09;14.60;;;3.10;;
39188;SDS011;24915;50.858;4.376;2023-03-31T05:24:35;20.77;;;4.13;;
39188;SDS011;24915;50.858;4.376;2023-03-31T05:27:01;18.45;;;3.63;;
39188;SDS011;24915;50.858;4.376;2023-03-31T05:29:26;22.08;;;3.50;;
39188;SDS011;24915;50.858;4.376;2023-03-31T05:31:52;21.13;;;3.63;;
39188;SDS011;24915;50.858;4.376;2023-03-31T05:34:18;18.45;;;3.30;;
39188;SDS011;24915;50.858;4.376;2023-03-31T05:36:44;19.98;;;4.20;;
39188;SDS011;24915;50.858;4.376;2023-03-31T05:39:12;22.42;;;4.00;;
39188;SDS011;24915;50.858;4.376;2023-03-31T05:41:38;23.60;;;4.05;;
39188;SDS011;24915;50.858;4.376;2023-03-31T05:44:04;18.90;;;3.05;;
39188;SDS011;24915;50.858;4.376;2023-03-31T05:46:30;16.90;;;3.90;;
39188;SDS011;24915;50.858;4.376;2023-03-31T05:48:55;20.33;;;3.90;;
39188;SDS011;24915;50.858;4.376;2023-03-31T05:51:22;23.85;;;3.72;;
39188;SDS011;24915;50.858;4.376;2023-03-31T05:53:48;28.90;;;4.47;;
39188;SDS011;24915;50.858;4.376;2023-03-31T05:56:14;19.25;;;3.92;;
39188;SDS011;24915;50.858;4.376;2023-03-31T05:58:40;14.45;;;3.75;;
39188;SDS011;24915;50.858;4.376;2023-03-31T06:01:13;18.35;;;3.72;;
39188;SDS011;24915;50.858;4.376;2023-03-31T06:03:46;23.85;;;3.35;;
39188;SDS011;24915;50.858;4.376;2023-03-31T06:06:12;21.27;;;3.50;;
39188;SDS011;24915;50.858;4.376;2023-03-31T06:08:39;19.10;;;4.47;;
39188;SDS011;24915;50.858;4.376;2023-03-31T06:11:06;22.55;;;3.80;;
39188;SDS011;24915;50.858;4.376;2023-03-31T06:13:33;22.63;;;4.22;;
39188;SDS011;24915;50.858;4.376;2023-03-31T06:16:00;18.15;;;3.95;;
39188;SDS011;24915;50.858;4.376;2023-03-31T06:18:27;28.23;;;4.32;;
39188;SDS011;24915;50.858;4.376;2023-03-31T06:20:54;22.98;;;4.30;;
39188;SDS011;24915;50.858;4.376;2023-03-31T06:23:20;22.63;;;4.10;;
39188;SDS011;24915;50.858;4.376;2023-03-31T06:25:46;17.58;;;4.30;;
39188;SDS011;24915;50.858;4.376;2023-03-31T06:28:13;22.80;;;4.22;;
39188;SDS011;24915;50.858;4.376;2023-03-31T06:30:39;22.30;;;4.22;;
39188;SDS011;24915;50.858;4.376;2023-03-31T06:33:05;17.55;;;3.65;;
39188;SDS011;24915;50.858;4.376;2023-03-31T06:35:31;24.63;;;4.32;;
39188;SDS011;24915;50.858;4.376;2023-03-31T06:37:57;22.70;;;4.63;;
39188;SDS011;24915;50.858;4.376;2023-03-31T06:40:22;19.52;;;4.60;;
39188;SDS011;24915;50.858;4.376;2023-03-31T06:42:48;23.52;;;4.43;;
39188;SDS011;24915;50.858;4.376;2023-03-31T06:45:14;21.35;;;3.90;;
39188;SDS011;24915;50.858;4.376;2023-03-31T06:47:40;18.55;;;4.40;;
39188;SDS011;24915;50.858;4.376;2023-03-31T06:50:06;27.58;;;4.78;;
39188;SDS011;24915;50.858;4.376;2023-03-31T06:52:33;23.02;;;5.03;;
39188;SDS011;24915;50.858;4.376;2023-03-31T06:54:59;24.70;;;5.13;;
39188;SDS011;24915;50.858;4.376;2023-03-31T06:57:26;25.45;;;4.38;;
39188;SDS011;24915;50.858;4.376;2023-03-31T06:59:52;39.17;;;5.07;;
39188;SDS011;24915;50.858;4.376;2023-03-31T07:02:18;26.50;;;4.85;;
39188;SDS011;24915;50.858;4.376;2023-03-31T07:04:43;31.23;;;5.40;;
39188;SDS011;24915;50.858;4.376;2023-03-31T07:07:09;22.85;;;4.47;;
39188;SDS011;24915;50.858;4.376;2023-03-31T07:09:35;24.25;;;5.32;;
39188;SDS011;24915;50.858;4.376;2023-03-31T07:12:01;23.15;;;4.85;;
39188;SDS011;24915;50.858;4.376;2023-03-31T07:14:32;30.85;;;5.82;;
39188;SDS011;24915;50.858;4.376;2023-03-31T07:16:58;21.55;;;4.32;;
39188;SDS011;24915;50.858;4.376;2023-03-31T07:19:23;28.15;;;5.30;;
39188;SDS011;24915;50.858;4.376;2023-03-31T07:21:49;31.05;;;5.50;;
39188;SDS011;24915;50.858;4.376;2023-03-31T07:24:15;19.60;;;3.63;;
39188;SDS011;24915;50.858;4.376;2023-03-31T07:26:41;26.45;;;5.25;;
39188;SDS011;24915;50.858;4.376;2023-03-31T07:29:07;26.40;;;5.00;;
39188;SDS011;24915;50.858;4.376;2023-03-31T07:31:33;21.95;;;5.10;;
39188;SDS011;24915;50.858;4.376;2023-03-31T07:34:00;23.88;;;4.13;;
39188;SDS011;24915;50.858;4.376;2023-03-31T07:36:27;25.27;;;5.00;;
39188;SDS011;24915;50.858;4.376;2023-03-31T07:38:54;27.70;;;5.43;;
39188;SDS011;24915;50.858;4.376;2023-03-31T07:41:20;26.08;;;5.28;;
39188;SDS011;24915;50.858;4.376;2023-03-31T07:43:47;29.23;;;4.88;;
39188;SDS011;24915;50.858;4.376;2023-03-31T07:46:20;28.00;;;5.50;;
39188;SDS011;24915;50.858;4.376;2023-03-31T07:48:48;28.23;;;5.13;;
39188;SDS011;24915;50.858;4.376;2023-03-31T07:51:15;24.20;;;5.18;;
39188;SDS011;24915;50.858;4.376;2023-03-31T07:53:42;28.33;;;5.03;;
39188;SDS011;24915;50.858;4.376;2023-03-31T07:56:08;31.33;;;5.22;;
39188;SDS011;24915;50.858;4.376;2023-03-31T07:58:34;30.00;;;5.43;;
39188;SDS011;24915;50.858;4.376;2023-03-31T08:01:00;30.85;;;6.78;;
39188;SDS011;24915;50.858;4.376;2023-03-31T08:03:26;24.42;;;5.05;;
39188;SDS011;24915;50.858;4.376;2023-03-31T08:05:53;26.20;;;5.85;;
39188;SDS011;24915;50.858;4.376;2023-03-31T08:08:19;34.72;;;6.07;;
39188;SDS011;24915;50.858;4.376;2023-03-31T08:10:45;33.72;;;5.18;;
39188;SDS011;24915;50.858;4.376;2023-03-31T08:13:11;31.23;;;5.00;;
39188;SDS011;24915;50.858;4.376;2023-03-31T08:15:37;33.63;;;5.93;;
39188;SDS011;24915;50.858;4.376;2023-03-31T08:18:03;28.42;;;5.03;;
39188;SDS011;24915;50.858;4.376;2023-03-31T08:20:29;31.40;;;4.47;;
39188;SDS011;24915;50.858;4.376;2023-03-31T08:22:55;31.73;;;5.35;;
39188;SDS011;24915;50.858;4.376;2023-03-31T08:25:21;28.73;;;5.10;;
39188;SDS011;24915;50.858;4.376;2023-03-31T08:27:48;28.75;;;4.95;;
39188;SDS011;24915;50.858;4.376;2023-03-31T08:30:17;27.52;;;5.65;;
39188;SDS011;24915;50.858;4.376;2023-03-31T08:32:44;27.35;;;4.40;;
39188;SDS011;24915;50.858;4.376;2023-03-31T08:35:10;21.98;;;4.85;;
39188;SDS011;24915;50.858;4.376;2023-03-31T08:37:36;23.63;;;4.30;;
39188;SDS011;24915;50.858;4.376;2023-03-31T08:40:03;30.58;;;5.13;;
39188;SDS011;24915;50.858;4.376;2023-03-31T08:42:34;22.83;;;4.85;;
39188;SDS011;24915;50.858;4.376;2023-03-31T08:45:13;23.50;;;5.65;;
39188;SDS011;24915;50.858;4.376;2023-03-31T08:47:44;29.55;;;5.20;;
39188;SDS011;24915;50.858;4.376;2023-03-31T08:50:17;25.75;;;4.38;;
39188;SDS011;24915;50.858;4.376;2023-03-31T08:52:48;30.60;;;5.85;;
39188;SDS011;24915;50.858;4.376;2023-03-31T08:55:27;28.02;;;5.18;;
39188;SDS011;24915;50.858;4.376;2023-03-31T08:58:17;25.80;;;6.15;;
39188;SDS011;24915;50.858;4.376;2023-03-31T09:01:17;25.98;;;5.88;;
39188;SDS011;24915;50.858;4.376;2023-03-31T09:12:13;31.02;;;4.88;;
39188;SDS011;24915;50.858;4.376;2023-03-31T09:14:46;20.33;;;4.57;;
39188;SDS011;24915;50.858;4.376;2023-03-31T09:17:30;23.38;;;4.75;;
39188;SDS011;24915;50.858;4.376;2023-03-31T09:22:39;23.38;;;5.40;;
39188;SDS011;24915;50.858;4.376;2023-03-31T09:25:22;33.42;;;6.53;;
39188;SDS011;24915;50.858;4.376;2023-03-31T09:27:57;31.42;;;6.20;;
39188;SDS011;24915;50.858;4.376;2023-03-31T09:30:28;31.08;;;5.90;;
39188;SDS011;24915;50.858;4.376;2023-03-31T09:35:44;35.50;;;6.45;;
39188;SDS011;24915;50.858;4.376;2023-03-31T09:38:10;33.55;;;5.88;;
39188;SDS011;24915;50.858;4.376;2023-03-31T09:40:37;29.08;;;5.70;;
39188;SDS011;24915;50.858;4.376;2023-03-31T09:45:51;31.55;;;6.18;;
39188;SDS011;24915;50.858;4.376;2023-03-31T09:48:22;36.40;;;6.05;;
39188;SDS011;24915;50.858;4.376;2023-03-31T09:50:58;27.20;;;5.60;;
39188;SDS011;24915;50.858;4.376;2023-03-31T09:56:12;36.63;;;6.20;;
39188;SDS011;24915;50.858;4.376;2023-03-31T09:58:55;31.92;;;5.50;;
39188;SDS011;24915;50.858;4.376;2023-03-31T10:01:26;29.10;;;5.50;;
39188;SDS011;24915;50.858;4.376;2023-03-31T10:03:53;42.13;;;6.32;;
39188;SDS011;24915;50.858;4.376;2023-03-31T10:06:20;30.08;;;6.32;;
39188;SDS011;24915;50.858;4.376;2023-03-31T10:08:53;41.80;;;6.45;;
39188;SDS011;24915;50.858;4.376;2023-03-31T10:11:21;40.25;;;6.03;;
39188;SDS011;24915;50.858;4.376;2023-03-31T10:14:02;32.60;;;5.32;;
39188;SDS011;24915;50.858;4.376;2023-03-31T10:24:39;31.48;;;6.25;;
39188;SDS011;24915;50.858;4.376;2023-03-31T10:27:10;34.53;;;5.93;;
39188;SDS011;24915;50.858;4.376;2023-03-31T10:30:02;24.58;;;5.38;;
39188;SDS011;24915;50.858;4.376;2023-03-31T10:32:33;33.53;;;5.50;;
39188;SDS011;24915;50.858;4.376;2023-03-31T10:40:14;33.53;;;5.75;;
39188;SDS011;24915;50.858;4.376;2023-03-31T10:42:45;21.52;;;5.68;;
39188;SDS011;24915;50.858;4.376;2023-03-31T10:45:24;32.35;;;6.90;;
39188;SDS011;24915;50.858;4.376;2023-03-31T10:47:56;36.08;;;6.32;;
39188;SDS011;24915;50.858;4.376;2023-03-31T10:50:27;28.05;;;4.95;;
39188;SDS011;24915;50.858;4.376;2023-03-31T10:52:59;30.05;;;6.10;;
39188;SDS011;24915;50.858;4.376;2023-03-31T10:55:35;29.00;;;5.25;;
39188;SDS011;24915;50.858;4.376;2023-03-31T10:58:16;32.72;;;5.72;;
39188;SDS011;24915;50.858;4.376;2023-03-31T11:01:23;31.52;;;5.57;;
39188;SDS011;24915;50.858;4.376;2023-03-31T11:03:57;26.98;;;5.88;;
39188;SDS011;24915;50.858;4.376;2023-03-31T11:26:13;26.55;;;5.10;;
39188;SDS011;24915;50.858;4.376;2023-03-31T11:43:01;18.05;;;4.00;;
39188;SDS011;24915;50.858;4.376;2023-03-31T11:45:37;27.02;;;4.70;;
39188;SDS011;24915;50.858;4.376;2023-03-31T11:48:21;15.43;;;4.50;;
39188;SDS011;24915;50.858;4.376;2023-03-31T11:50:57;19.55;;;5.10;;
39188;SDS011;24915;50.858;4.376;2023-03-31T11:53:31;20.10;;;4.43;;
39188;SDS011;24915;50.858;4.376;2023-03-31T11:55:59;21.33;;;4.63;;
39188;SDS011;24915;50.858;4.376;2023-03-31T11:58:35;20.98;;;4.63;;
39188;SDS011;24915;50.858;4.376;2023-03-31T12:01:13;20.63;;;4.50;;
39188;SDS011;24915;50.858;4.376;2023-03-31T12:06:43;26.20;;;5.07;;
39188;SDS011;24915;50.858;4.376;2023-03-31T12:11:41;22.05;;;4.85;;
39188;SDS011;24915;50.858;4.376;2023-03-31T12:17:11;27.38;;;4.60;;
39188;SDS011;24915;50.858;4.376;2023-03-31T12:19:43;22.88;;;4.38;;
39188;SDS011;24915;50.858;4.376;2023-03-31T12:22:21;18.00;;;3.58;;
39188;SDS011;24915;50.858;4.376;2023-03-31T12:24:48;21.63;;;3.72;;
39188;SDS011;24915;50.858;4.376;2023-03-31T12:29:52;24.75;;;3.75;;
39188;SDS011;24915;50.858;4.376;2023-03-31T12:32:30;28.35;;;4.20;;
39188;SDS011;24915;50.858;4.376;2023-03-31T13:04:39;6.43;;;1.42;;
39188;SDS011;24915;50.858;4.376;2023-03-31T13:07:51;7.93;;;1.98;;
39188;SDS011;24915;50.858;4.376;2023-03-31T13:09:58;6.65;;;1.77;;
39188;SDS011;24915;50.858;4.376;2023-03-31T13:12:55;8.07;;;1.88;;
39188;SDS011;24915;50.858;4.376;2023-03-31T13:15:30;4.70;;;1.25;;
39188;SDS011;24915;50.858;4.376;2023-03-31T13:17:58;8.02;;;1.48;;
39188;SDS011;24915;50.858;4.376;2023-03-31T13:25:38;3.55;;;1.10;;
39188;SDS011;24915;50.858;4.376;2023-03-31T13:28:10;6.55;;;1.00;;
39188;SDS011;24915;50.858;4.376;2023-03-31T13:35:34;3.22;;;0.90;;
39188;SDS011;24915;50.858;4.376;2023-03-31T13:38:12;7.97;;;1.00;;
39188;SDS011;24915;50.858;4.376;2023-03-31T13:40:48;3.50;;;1.30;;
39188;SDS011;24915;50.858;4.376;2023-03-31T13:46:25;5.07;;;1.10;;
39188;SDS011;24915;50.858;4.376;2023-03-31T13:54:28;3.60;;;1.10;;
39188;SDS011;24915;50.858;4.376;2023-03-31T13:57:22;5.00;;;1.10;;
39188;SDS011;24915;50.858;4.376;2023-03-31T14:05:54;3.83;;;1.45;;
39188;SDS011;24915;50.858;4.376;2023-03-31T14:10:50;5.50;;;1.38;;
39188;SDS011;24915;50.858;4.376;2023-03-31T14:13:17;5.40;;;1.83;;
39188;SDS011;24915;50.858;4.376;2023-03-31T14:16:17;7.07;;;1.92;;
39188;SDS011;24915;50.858;4.376;2023-03-31T14:18:39;1.70;;;0.98;;
39188;SDS011;24915;50.858;4.376;2023-03-31T14:24:04;3.35;;;1.35;;
39188;SDS011;24915;50.858;4.376;2023-03-31T14:35:16;3.88;;;1.30;;
39188;SDS011;24915;50.858;4.376;2023-03-31T14:37:51;1.60;;;0.82;;
39188;SDS011;24915;50.858;4.376;2023-03-31T14:40:18;1.80;;;1.00;;
39188;SDS011;24915;50.858;4.376;2023-03-31T14:42:44;5.43;;;0.90;;
39188;SDS011;24915;50.858;4.376;2023-03-31T14:45:19;3.00;;;0.82;;
39188;SDS011;24915;50.858;4.376;2023-03-31T14:48:01;1.88;;;0.70;;
39188;SDS011;24915;50.858;4.376;2023-03-31T14:50:33;1.83;;;0.68;;
39188;SDS011;24915;50.858;4.376;2023-03-31T14:52:59;1.60;;;1.08;;
39188;SDS011;24915;50.858;4.376;2023-03-31T14:55:27;4.70;;;0.85;;
39188;SDS011;24915;50.858;4.376;2023-03-31T14:57:55;2.17;;;0.85;;
39188;SDS011;24915;50.858;4.376;2023-03-31T15:00:27;3.10;;;1.20;;
39188;SDS011;24915;50.858;4.376;2023-03-31T15:02:56;1.75;;;0.70;;
39188;SDS011;24915;50.858;4.376;2023-03-31T15:05:30;2.72;;;0.93;;
39188;SDS011;24915;50.858;4.376;2023-03-31T15:08:02;5.60;;;1.48;;
39188;SDS011;24915;50.858;4.376;2023-03-31T15:10:38;3.20;;;0.77;;
39188;SDS011;24915;50.858;4.376;2023-03-31T15:13:10;3.95;;;0.95;;
39188;SDS011;24915;50.858;4.376;2023-03-31T15:15:41;2.80;;;1.00;;
39188;SDS011;24915;50.858;4.376;2023-03-31T15:18:13;1.55;;;0.90;;
39188;SDS011;24915;50.858;4.376;2023-03-31T15:20:40;5.78;;;0.95;;
39188;SDS011;24915;50.858;4.376;2023-03-31T15:23:40;4.78;;;0.98;;
39188;SDS011;24915;50.858;4.376;2023-03-31T15:26:00;5.20;;;1.08;;
39188;SDS011;24915;50.858;4.376;2023-03-31T15:28:33;4.07;;;1.00;;
39188;SDS011;24915;50.858;4.376;2023-03-31T15:31:04;3.63;;;1.58;;
39188;SDS011;24915;50.858;4.376;2023-03-31T15:33:32;1.92;;;1.27;;
39188;SDS011;24915;50.858;4.376;2023-03-31T15:36:00;4.68;;;1.52;;
39188;SDS011;24915;50.858;4.376;2023-03-31T15:38:27;3.58;;;1.48;;
39188;SDS011;24915;50.858;4.376;2023-03-31T15:40:55;4.63;;;1.10;;
39188;SDS011;24915;50.858;4.376;2023-03-31T15:43:28;2.67;;;1.10;;
39188;SDS011;24915;50.858;4.376;2023-03-31T15:49:17;3.80;;;1.10;;
39188;SDS011;24915;50.858;4.376;2023-03-31T15:51:45;6.80;;;1.50;;
39188;SDS011;24915;50.858;4.376;2023-03-31T15:54:25;9.27;;;1.67;;
39188;SDS011;24915;50.858;4.376;2023-03-31T15:56:59;2.53;;;1.30;;
39188;SDS011;24915;50.858;4.376;2023-03-31T15:59:27;11.50;;;1.80;;
39188;SDS011;24915;50.858;4.376;2023-03-31T16:01:55;8.63;;;1.63;;
39188;SDS011;24915;50.858;4.376;2023-03-31T16:04:24;7.10;;;2.00;;
39188;SDS011;24915;50.858;4.376;2023-03-31T16:07:01;11.07;;;2.90;;
39188;SDS011;24915;50.858;4.376;2023-03-31T16:12:12;9.52;;;2.22;;
39188;SDS011;24915;50.858;4.376;2023-03-31T16:14:46;10.23;;;2.00;;
39188;SDS011;24915;50.858;4.376;2023-03-31T16:17:25;13.25;;;2.47;;
39188;SDS011;24915;50.858;4.376;2023-03-31T16:20:06;9.23;;;2.40;;
39188;SDS011;24915;50.858;4.376;2023-03-31T16:22:43;8.32;;;2.28;;
39188;SDS011;24915;50.858;4.376;2023-03-31T16:25:12;16.67;;;3.33;;
39188;SDS011;24915;50.858;4.376;2023-03-31T16:27:42;10.52;;;2.30;;
39188;SDS011;24915;50.858;4.376;2023-03-31T16:30:15;16.17;;;3.28;;
39188;SDS011;24915;50.858;4.376;2023-03-31T16:35:33;19.88;;;3.13;;
39188;SDS011;24915;50.858;4.376;2023-03-31T16:38:20;18.60;;;2.80;;
39188;SDS011;24915;50.858;4.376;2023-03-31T16:40:48;14.75;;;2.70;;
39188;SDS011;24915;50.858;4.376;2023-03-31T16:43:18;13.40;;;2.85;;
39188;SDS011;24915;50.858;4.376;2023-03-31T16:45:46;13.80;;;2.30;;
39188;SDS011;24915;50.858;4.376;2023-03-31T16:48:14;15.40;;;3.25;;
39188;SDS011;24915;50.858;4.376;2023-03-31T16:50:41;14.45;;;2.92;;
39188;SDS011;24915;50.858;4.376;2023-03-31T16:53:08;13.65;;;2.20;;
39188;SDS011;24915;50.858;4.376;2023-03-31T16:55:34;12.40;;;2.80;;
39188;SDS011;24915;50.858;4.376;2023-03-31T16:58:00;12.05;;;2.28;;
39188;SDS011;24915;50.858;4.376;2023-03-31T17:00:31;10.18;;;2.28;;
39188;SDS011;24915;50.858;4.376;2023-03-31T17:03:00;11.52;;;2.65;;
39188;SDS011;24915;50.858;4.376;2023-03-31T17:05:27;12.48;;;2.78;;
39188;SDS011;24915;50.858;4.376;2023-03-31T17:07:56;13.70;;;2.97;;
39188;SDS011;24915;50.858;4.376;2023-03-31T17:10:22;12.48;;;2.50;;
39188;SDS011;24915;50.858;4.376;2023-03-31T17:12:48;10.85;;;2.58;;
39188;SDS011;24915;50.858;4.376;2023-03-31T17:15:14;9.82;;;2.30;;
39188;SDS011;24915;50.858;4.376;2023-03-31T17:17:40;12.30;;;2.70;;
39188;SDS011;24915;50.858;4.376;2023-03-31T17:20:07;12.77;;;2.92;;
39188;SDS011;24915;50.858;4.376;2023-03-31T17:22:34;8.48;;;2.30;;
39188;SDS011;24915;50.858;4.376;2023-03-31T17:25:00;11.30;;;2.35;;
39188;SDS011;24915;50.858;4.376;2023-03-31T17:27:27;10.02;;;2.85;;
39188;SDS011;24915;50.858;4.376;2023-03-31T17:29:53;10.07;;;2.65;;
39188;SDS011;24915;50.858;4.376;2023-03-31T17:32:20;10.70;;;2.80;;
39188;SDS011;24915;50.858;4.376;2023-03-31T17:34:46;8.90;;;2.90;;
39188;SDS011;24915;50.858;4.376;2023-03-31T17:37:16;8.27;;;2.45;;
39188;SDS011;24915;50.858;4.376;2023-03-31T17:39:42;11.35;;;2.92;;
39188;SDS011;24915;50.858;4.376;2023-03-31T17:42:09;17.00;;;3.20;;
39188;SDS011;24915;50.858;4.376;2023-03-31T17:44:36;22.98;;;4.03;;
39188;SDS011;24915;50.858;4.376;2023-03-31T17:47:02;19.77;;;3.67;;
39188;SDS011;24915;50.858;4.376;2023-03-31T17:49:27;18.95;;;3.50;;
39188;SDS011;24915;50.858;4.376;2023-03-31T17:51:53;21.85;;;4.78;;
39188;SDS011;24915;50.858;4.376;2023-03-31T17:54:19;23.25;;;3.78;;
39188;SDS011;24915;50.858;4.376;2023-03-31T17:56:45;19.83;;;4.15;;
39188;SDS011;24915;50.858;4.376;2023-03-31T17:59:14;22.40;;;4.13;;
39188;SDS011;24915;50.858;4.376;2023-03-31T18:01:40;30.33;;;4.43;;
39188;SDS011;24915;50.858;4.376;2023-03-31T18:04:07;26.60;;;4.65;;
39188;SDS011;24915;50.858;4.376;2023-03-31T18:06:33;22.98;;;4.50;;
39188;SDS011;24915;50.858;4.376;2023-03-31T18:08:58;23.90;;;4.70;;
39188;SDS011;24915;50.858;4.376;2023-03-31T18:11:24;23.35;;;4.85;;
39188;SDS011;24915;50.858;4.376;2023-03-31T18:13:52;21.27;;;4.93;;
39188;SDS011;24915;50.858;4.376;2023-03-31T18:16:18;24.05;;;5.93;;
39188;SDS011;24915;50.858;4.376;2023-03-31T18:18:44;28.45;;;5.93;;
39188;SDS011;24915;50.858;4.376;2023-03-31T18:21:10;28.35;;;7.38;;
39188;SDS011;24915;50.858;4.376;2023-03-31T18:23:37;26.15;;;5.18;;
39188;SDS011;24915;50.858;4.376;2023-03-31T18:26:07;26.02;;;5.50;;
39188;SDS011;24915;50.858;4.376;2023-03-31T18:28:33;26.58;;;5.38;;